Time;durP1;ratioP1;P1;durP2;ratioP2;P2;SDS_P1;SDS_P2;PMS_P1;PMS_P2;Temp;Humidity;BMP_temperature;BMP_pressure;BME280_temperature;BME280_humidity;BME280_pressure;Samples;Min_cycle;Max_cycle;Signal;HPM_P1;HPM_P2
2023/12/28 00:01:26;;;;;;;4.93;2.40;;;10.00;99.90;;;;;;5043666;28;20466;-65
2023/12/28 00:03:51;;;;;;;4.88;1.83;;;10.00;99.90;;;;;;5022005;28;20240;-65
2023/12/28 00:06:17;;;;;;;5.30;1.90;;;10.00;99.90;;;;;;5047627;28;20028;-65
2023/12/28 00:08:43;;;;;;;4.90;2.20;;;10.00;99.90;;;;;;5038871;28;20180;-66
2023/12/28 00:11:09;;;;;;;3.08;1.80;;;10.00;99.90;;;;;;5059436;28;20387;-65
2023/12/28 00:13:35;;;;;;;4.53;1.85;;;10.00;99.90;;;;;;5052781;28;20143;-65
2023/12/28 00:16:00;;;;;;;5.50;1.80;;;10.00;99.90;;;;;;5064042;28;20044;-65
2023/12/28 00:18:26;;;;;;;3.10;1.92;;;10.00;99.90;;;;;;5058993;28;20543;-66
2023/12/28 00:20:53;;;;;;;2.97;1.83;;;10.10;99.90;;;;;;5058243;28;20470;-66
2023/12/28 00:23:20;;;;;;;3.95;1.88;;;10.00;99.90;;;;;;5039704;28;20452;-65
2023/12/28 00:25:46;;;;;;;4.88;2.15;;;10.00;99.90;;;;;;5053349;28;20494;-65
2023/12/28 00:28:12;;;;;;;4.80;2.20;;;10.00;99.90;;;;;;5039764;28;20044;-65
2023/12/28 00:30:37;;;;;;;2.90;1.75;;;10.00;99.90;;;;;;5063369;28;20044;-66
2023/12/28 00:33:04;;;;;;;5.03;2.15;;;9.90;99.90;;;;;;5043710;28;20458;-65
2023/12/28 00:35:29;;;;;;;4.60;1.95;;;9.90;99.90;;;;;;5058254;28;20039;-65
2023/12/28 00:37:55;;;;;;;4.47;1.92;;;9.80;99.90;;;;;;5058510;28;20036;-65
2023/12/28 00:40:21;;;;;;;3.95;1.90;;;9.70;99.90;;;;;;5058593;28;20048;-65
2023/12/28 00:42:50;;;;;;;5.95;2.33;;;9.70;99.90;;;;;;5020807;28;20036;-65
2023/12/28 00:45:16;;;;;;;4.05;1.70;;;9.70;99.90;;;;;;5038863;28;20036;-66
2023/12/28 00:47:43;;;;;;;5.43;2.20;;;9.70;99.90;;;;;;5052171;28;20036;-68
2023/12/28 00:50:14;;;;;;;3.25;1.65;;;9.60;99.90;;;;;;5033663;28;20135;-65
2023/12/28 00:52:41;;;;;;;5.90;2.45;;;9.80;99.90;;;;;;5034447;28;20124;-65
2023/12/28 00:55:07;;;;;;;6.47;2.53;;;9.80;99.90;;;;;;5046461;28;20599;-65
2023/12/28 00:57:33;;;;;;;4.50;2.28;;;9.80;99.90;;;;;;5042175;28;20190;-65
2023/12/28 00:59:59;;;;;;;4.28;2.17;;;9.80;99.90;;;;;;5021197;28;20052;-65
2023/12/28 01:02:25;;;;;;;4.15;1.95;;;9.70;99.90;;;;;;5053323;28;20567;-66
2023/12/28 01:04:51;;;;;;;4.47;2.00;;;9.70;99.90;;;;;;5043332;28;20036;-66
2023/12/28 01:07:17;;;;;;;6.03;2.72;;;9.70;99.90;;;;;;5020936;28;20047;-68
2023/12/28 01:09:43;;;;;;;7.57;2.75;;;9.70;99.90;;;;;;5043898;28;20090;-65
2023/12/28 01:12:08;;;;;;;6.35;2.63;;;9.60;99.90;;;;;;5060601;28;20043;-66
2023/12/28 01:14:34;;;;;;;4.82;2.35;;;9.70;99.90;;;;;;5056719;28;20038;-65
2023/12/28 01:17:00;;;;;;;5.57;2.28;;;9.70;99.90;;;;;;5024009;28;20449;-67
2023/12/28 01:19:26;;;;;;;6.15;2.80;;;9.70;99.90;;;;;;5067487;28;20044;-65
2023/12/28 01:21:52;;;;;;;6.53;2.50;;;9.70;99.90;;;;;;5070329;28;20051;-65
2023/12/28 01:24:17;;;;;;;5.95;2.60;;;9.60;99.90;;;;;;5064197;28;20191;-65
2023/12/28 01:26:43;;;;;;;7.80;2.67;;;9.60;99.90;;;;;;5058353;28;20044;-65
2023/12/28 01:29:09;;;;;;;5.80;2.15;;;9.60;99.90;;;;;;5046745;28;20386;-66
2023/12/28 01:31:35;;;;;;;6.00;2.03;;;9.60;99.90;;;;;;5068701;28;20161;-64
2023/12/28 01:34:00;;;;;;;7.13;2.60;;;9.60;99.90;;;;;;5062175;28;20135;-65
2023/12/28 01:36:29;;;;;;;7.45;2.30;;;9.70;99.90;;;;;;5044987;28;20045;-64
2023/12/28 01:38:55;;;;;;;8.73;2.22;;;9.60;99.90;;;;;;5041448;28;20051;-64
2023/12/28 01:41:21;;;;;;;7.88;2.38;;;9.60;99.90;;;;;;5047062;28;20660;-64
2023/12/28 01:43:47;;;;;;;8.20;2.50;;;9.70;99.90;;;;;;5047911;28;20045;-65
2023/12/28 01:46:17;;;;;;;5.47;2.30;;;9.60;99.90;;;;;;5045885;28;20031;-64
2023/12/28 01:48:45;;;;;;;6.57;1.73;;;9.70;99.90;;;;;;5047285;28;20583;-65
2023/12/28 01:51:13;;;;;;;9.20;2.45;;;9.60;99.90;;;;;;5046571;28;20496;-65
2023/12/28 01:53:39;;;;;;;6.13;2.10;;;9.60;99.90;;;;;;5050435;28;20048;-65
2023/12/28 01:56:05;;;;;;;7.85;2.45;;;9.60;99.90;;;;;;5040485;28;20098;-65
2023/12/28 01:58:35;;;;;;;10.07;2.47;;;9.60;99.90;;;;;;5063930;28;20044;-65
2023/12/28 02:01:01;;;;;;;9.27;2.40;;;9.60;99.90;;;;;;5043763;28;20047;-65
2023/12/28 02:03:27;;;;;;;6.43;1.85;;;9.60;99.90;;;;;;5067332;28;20685;-66
2023/12/28 02:05:54;;;;;;;8.52;2.10;;;9.60;99.90;;;;;;5043398;28;20044;-65
2023/12/28 02:08:20;;;;;;;6.47;2.20;;;9.60;99.90;;;;;;5062685;28;20362;-65
2023/12/28 02:10:46;;;;;;;8.63;2.40;;;9.80;99.90;;;;;;5059926;28;20208;-65
2023/12/28 02:13:12;;;;;;;10.30;2.30;;;9.60;99.90;;;;;;5066507;28;20056;-65
2023/12/28 02:15:37;;;;;;;8.82;2.38;;;9.60;99.90;;;;;;5057477;28;20707;-66
2023/12/28 02:18:17;;;;;;;12.73;2.30;;;9.50;99.90;;;;;;5043737;28;20512;-65
2023/12/28 02:20:44;;;;;;;14.02;2.90;;;9.60;99.90;;;;;;5054291;28;20808;-65
2023/12/28 02:23:10;;;;;;;9.85;2.83;;;9.70;99.90;;;;;;5059034;28;20058;-65
2023/12/28 02:25:36;;;;;;;9.02;2.20;;;9.70;99.90;;;;;;5060139;28;20051;-65
2023/12/28 02:28:02;;;;;;;11.52;2.38;;;9.70;99.90;;;;;;5061295;28;20371;-65
2023/12/28 02:30:29;;;;;;;10.43;2.20;;;9.70;99.90;;;;;;5060658;28;20419;-64
2023/12/28 02:33:10;;;;;;;9.18;2.10;;;9.70;99.90;;;;;;5057463;28;20048;-65
2023/12/28 02:35:56;;;;;;;11.40;2.00;;;9.70;99.90;;;;;;5057231;28;20457;-65
2023/12/28 02:38:25;;;;;;;11.82;1.85;;;9.70;99.90;;;;;;5046002;28;20049;-65
2023/12/28 02:40:50;;;;;;;11.30;2.67;;;9.70;99.90;;;;;;5040029;28;20036;-65
2023/12/28 02:43:16;;;;;;;13.30;1.92;;;9.70;99.90;;;;;;5066042;28;20573;-65
2023/12/28 02:45:42;;;;;;;8.68;1.80;;;9.70;99.90;;;;;;5048377;28;20068;-66
2023/12/28 02:48:08;;;;;;;10.27;1.90;;;9.80;99.90;;;;;;5064385;28;20506;-65
2023/12/28 02:50:35;;;;;;;13.63;2.10;;;9.80;99.90;;;;;;5041573;28;20044;-65
2023/12/28 02:53:01;;;;;;;10.52;1.80;;;9.80;99.90;;;;;;5053712;28;20090;-66
2023/12/28 02:55:27;;;;;;;12.48;2.03;;;9.70;99.90;;;;;;5019353;28;20040;-65
2023/12/28 02:57:59;;;;;;;12.18;2.13;;;9.80;99.90;;;;;;5054299;28;20155;-66
2023/12/28 03:00:24;;;;;;;9.02;1.55;;;9.80;99.90;;;;;;5054439;28;20611;-65
2023/12/28 03:02:50;;;;;;;13.57;2.28;;;9.90;99.90;;;;;;5056090;28;20048;-67
2023/12/28 03:05:17;;;;;;;10.38;1.33;;;10.00;99.90;;;;;;5063034;28;20048;-66
2023/12/28 03:07:43;;;;;;;10.38;1.67;;;10.00;99.90;;;;;;5060982;28;20044;-65
2023/12/28 03:10:09;;;;;;;13.07;2.05;;;10.00;99.90;;;;;;5058739;28;20488;-65
2023/12/28 03:12:35;;;;;;;6.90;1.20;;;10.10;99.90;;;;;;5059868;28;20426;-65
2023/12/28 03:15:01;;;;;;;12.68;1.80;;;10.10;99.90;;;;;;5049852;28;20044;-65
2023/12/28 03:17:28;;;;;;;13.27;2.00;;;10.10;99.90;;;;;;5052686;28;20142;-65
2023/12/28 03:19:54;;;;;;;10.60;1.90;;;10.10;99.90;;;;;;5021683;28;21155;-65
2023/12/28 03:22:20;;;;;;;14.63;2.00;;;10.20;99.90;;;;;;5064665;28;20152;-66
2023/12/28 03:24:46;;;;;;;10.57;1.65;;;10.30;99.90;;;;;;5034400;28;20062;-65
2023/12/28 03:27:12;;;;;;;11.18;2.15;;;10.40;99.90;;;;;;5061908;28;20032;-66
2023/12/28 03:29:40;;;;;;;10.45;1.63;;;10.30;99.90;;;;;;5041918;28;20300;-65
2023/12/28 03:32:06;;;;;;;10.40;1.55;;;10.40;99.90;;;;;;5063082;28;20568;-65
2023/12/28 03:34:32;;;;;;;12.43;1.90;;;10.40;99.90;;;;;;5059507;28;20076;-66
2023/12/28 03:36:58;;;;;;;13.95;2.40;;;10.50;99.90;;;;;;5021622;28;20325;-65
2023/12/28 03:39:24;;;;;;;8.27;1.60;;;10.50;99.90;;;;;;5037101;28;20573;-65
2023/12/28 03:41:50;;;;;;;10.95;2.00;;;10.60;99.90;;;;;;5055372;28;20092;-66
2023/12/28 03:44:16;;;;;;;10.65;1.58;;;10.60;99.90;;;;;;5043895;28;21048;-65
2023/12/28 03:46:42;;;;;;;8.45;1.48;;;10.70;99.90;;;;;;5040541;28;20047;-69
2023/12/28 03:49:08;;;;;;;10.27;1.50;;;10.70;99.90;;;;;;5054311;28;20040;-65
2023/12/28 03:51:34;;;;;;;13.93;1.55;;;10.80;99.90;;;;;;5035312;28;20040;-65
2023/12/28 03:54:00;;;;;;;12.25;1.67;;;10.80;99.90;;;;;;5061869;28;20051;-65
2023/12/28 03:56:27;;;;;;;8.90;1.10;;;10.80;99.90;;;;;;5059054;28;20659;-65
2023/12/28 03:58:54;;;;;;;13.93;1.67;;;10.90;99.90;;;;;;5060365;28;20407;-65
2023/12/28 04:01:23;;;;;;;9.68;1.65;;;10.90;99.90;;;;;;5056340;28;20183;-68
2023/12/28 04:03:49;;;;;;;10.30;1.42;;;10.90;99.90;;;;;;5035541;28;20048;-66
2023/12/28 04:06:15;;;;;;;16.25;2.17;;;10.80;99.90;;;;;;5020829;28;20040;-65
2023/12/28 04:08:42;;;;;;;12.25;1.50;;;10.80;99.90;;;;;;5065974;28;20779;-65
2023/12/28 04:11:08;;;;;;;11.00;1.48;;;10.80;99.90;;;;;;5053136;28;20056;-65
2023/12/28 04:13:34;;;;;;;9.30;1.17;;;10.80;99.90;;;;;;5057866;28;20636;-66
2023/12/28 04:16:00;;;;;;;10.73;1.70;;;10.80;99.90;;;;;;5057200;28;20194;-66
2023/12/28 04:18:26;;;;;;;7.60;1.00;;;10.80;99.90;;;;;;5041258;28;20074;-66
2023/12/28 04:20:52;;;;;;;10.88;1.20;;;10.90;99.90;;;;;;5055540;28;20114;-65
2023/12/28 04:23:18;;;;;;;12.00;1.85;;;10.90;99.90;;;;;;5021237;28;20045;-66
2023/12/28 04:25:44;;;;;;;10.68;1.27;;;10.90;99.90;;;;;;5020189;28;20384;-65
2023/12/28 04:28:10;;;;;;;14.73;1.52;;;11.00;99.90;;;;;;5017814;28;20047;-66
2023/12/28 04:30:36;;;;;;;11.27;1.35;;;11.00;99.90;;;;;;5057520;28;20033;-66
2023/12/28 04:33:02;;;;;;;11.45;1.77;;;11.00;99.90;;;;;;5018880;28;20226;-66
2023/12/28 04:35:28;;;;;;;11.02;1.30;;;11.00;99.90;;;;;;5001873;28;20044;-65
2023/12/28 04:37:54;;;;;;;12.65;2.10;;;11.00;99.90;;;;;;5057935;28;20064;-66
2023/12/28 04:40:20;;;;;;;8.73;1.25;;;11.00;99.90;;;;;;5041696;28;20032;-69
2023/12/28 04:42:46;;;;;;;14.20;1.83;;;11.00;99.90;;;;;;5043892;28;20235;-65
2023/12/28 04:45:12;;;;;;;11.90;1.65;;;11.10;99.90;;;;;;5058294;28;20067;-65
2023/12/28 04:47:38;;;;;;;10.95;1.33;;;11.10;99.90;;;;;;5055875;28;20637;-66
2023/12/28 04:50:05;;;;;;;14.70;1.67;;;11.20;99.90;;;;;;5059409;28;20048;-65
2023/12/28 04:52:32;;;;;;;17.92;1.80;;;11.10;99.90;;;;;;5037488;28;20044;-65
2023/12/28 04:54:58;;;;;;;12.05;1.35;;;11.20;99.90;;;;;;5059706;28;20052;-65
2023/12/28 04:57:28;;;;;;;11.70;1.40;;;11.20;99.90;;;;;;5043169;28;20253;-67
2023/12/28 04:59:54;;;;;;;14.15;1.88;;;11.20;99.90;;;;;;5046588;28;20161;-66
2023/12/28 05:02:20;;;;;;;9.55;1.33;;;11.20;99.90;;;;;;5056899;28;20048;-65
2023/12/28 05:04:46;;;;;;;12.07;1.05;;;11.30;99.90;;;;;;5045413;28;20763;-66
2023/12/28 05:07:12;;;;;;;12.65;1.52;;;11.30;99.90;;;;;;5058348;28;20423;-66
2023/12/28 05:09:38;;;;;;;17.13;2.10;;;11.40;99.90;;;;;;5046238;28;20542;-65
2023/12/28 05:12:04;;;;;;;15.55;1.80;;;11.40;99.90;;;;;;5039486;28;20032;-64
2023/12/28 05:14:30;;;;;;;14.68;1.52;;;11.40;99.90;;;;;;5039691;28;20418;-67
2023/12/28 05:16:56;;;;;;;15.65;1.92;;;11.50;99.90;;;;;;5041992;28;20044;-66
2023/12/28 05:19:21;;;;;;;7.97;0.93;;;11.50;99.90;;;;;;5039573;28;20052;-66
2023/12/28 05:21:47;;;;;;;13.65;1.77;;;11.50;99.90;;;;;;5054271;28;20040;-67
2023/12/28 05:24:13;;;;;;;13.32;1.75;;;11.50;99.90;;;;;;5019232;28;20041;-66
2023/12/28 05:26:39;;;;;;;18.00;2.00;;;11.50;99.90;;;;;;5037896;28;20040;-67
2023/12/28 05:29:05;;;;;;;12.77;2.25;;;11.60;99.90;;;;;;5046911;28;20162;-65
2023/12/28 05:31:31;;;;;;;10.27;1.17;;;11.50;99.90;;;;;;5055145;28;20720;-71
2023/12/28 05:33:58;;;;;;;12.45;1.13;;;11.60;99.90;;;;;;5039921;28;20417;-66
2023/12/28 05:36:24;;;;;;;15.02;1.70;;;11.50;99.90;;;;;;5036499;28;20133;-67
2023/12/28 05:38:50;;;;;;;11.27;1.60;;;11.50;99.90;;;;;;5045283;28;20528;-65
2023/12/28 05:41:16;;;;;;;16.45;1.70;;;11.50;99.90;;;;;;5036392;28;20130;-65
2023/12/28 05:43:42;;;;;;;17.75;1.55;;;11.50;99.90;;;;;;5058469;28;20111;-65
2023/12/28 05:46:08;;;;;;;8.95;1.23;;;11.40;99.90;;;;;;5031135;28;20683;-65
2023/12/28 05:48:36;;;;;;;12.95;2.00;;;11.40;99.90;;;;;;5020869;28;20041;-65
2023/12/28 05:51:03;;;;;;;14.75;1.67;;;11.40;99.90;;;;;;5063152;28;20534;-66
2023/12/28 05:53:29;;;;;;;9.10;1.20;;;11.40;99.90;;;;;;5043216;28;20068;-66
2023/12/28 05:55:55;;;;;;;16.02;1.98;;;11.40;99.90;;;;;;5030933;28;20076;-66
2023/12/28 05:58:20;;;;;;;13.55;1.88;;;11.30;99.90;;;;;;5064032;28;20124;-66
2023/12/28 06:00:47;;;;;;;18.02;1.92;;;11.30;99.90;;;;;;5059612;28;20047;-66
2023/12/28 06:03:14;;;;;;;13.98;1.08;;;11.30;99.90;;;;;;5057406;28;20051;-66
2023/12/28 06:05:40;;;;;;;16.30;1.75;;;11.40;99.90;;;;;;5058547;28;20041;-66
2023/12/28 06:08:06;;;;;;;14.88;2.03;;;11.40;99.90;;;;;;5062488;28;20151;-65
2023/12/28 06:10:32;;;;;;;18.23;2.35;;;11.40;99.90;;;;;;5040704;28;20033;-65
2023/12/28 06:12:58;;;;;;;14.15;1.45;;;11.30;99.90;;;;;;5059997;28;20078;-65
2023/12/28 06:15:24;;;;;;;12.93;1.50;;;11.40;99.90;;;;;;5061955;28;20473;-66
2023/12/28 06:17:49;;;;;;;13.00;1.58;;;11.40;99.90;;;;;;5045163;28;20044;-65
2023/12/28 06:20:15;;;;;;;15.43;1.77;;;11.50;99.90;;;;;;5044992;28;20057;-66
2023/12/28 06:22:41;;;;;;;14.93;1.73;;;11.50;99.90;;;;;;5061208;28;20270;-65
2023/12/28 06:25:07;;;;;;;16.17;1.30;;;11.50;99.90;;;;;;5044355;28;20044;-67
2023/12/28 06:27:33;;;;;;;13.68;1.65;;;11.40;99.90;;;;;;5048791;28;20040;-65
2023/12/28 06:29:59;;;;;;;17.88;2.08;;;11.40;99.90;;;;;;5068419;28;20059;-65
2023/12/28 06:32:25;;;;;;;14.95;2.10;;;11.40;99.90;;;;;;5036033;28;20056;-65
2023/12/28 06:34:50;;;;;;;16.52;1.80;;;11.40;99.90;;;;;;5056987;28;20124;-65
2023/12/28 06:37:17;;;;;;;18.95;2.17;;;11.40;99.90;;;;;;5050096;28;20131;-66
2023/12/28 06:39:43;;;;;;;17.33;1.92;;;11.40;99.90;;;;;;5039308;28;20043;-65
2023/12/28 06:42:08;;;;;;;19.40;2.30;;;11.50;99.90;;;;;;5063881;28;20048;-66
2023/12/28 06:44:34;;;;;;;16.58;2.38;;;11.50;99.90;;;;;;5021740;28;20079;-66
2023/12/28 06:47:00;;;;;;;11.93;1.35;;;11.40;99.90;;;;;;5048859;28;20570;-66
2023/12/28 06:49:26;;;;;;;16.35;1.65;;;11.40;99.90;;;;;;5056638;28;20047;-66
2023/12/28 06:51:52;;;;;;;14.52;1.85;;;11.40;99.90;;;;;;5042799;28;20437;-66
2023/12/28 06:54:18;;;;;;;17.08;2.20;;;11.40;99.90;;;;;;5041152;28;20545;-67
2023/12/28 06:56:44;;;;;;;11.32;1.50;;;11.40;99.90;;;;;;5041691;28;20036;-65
2023/12/28 06:59:12;;;;;;;16.45;2.13;;;11.40;99.90;;;;;;5062819;28;20426;-66
2023/12/28 07:01:38;;;;;;;17.50;1.88;;;11.40;99.90;;;;;;5072790;28;20352;-68
2023/12/28 07:04:04;;;;;;;15.32;2.10;;;11.40;99.90;;;;;;5050515;28;20056;-66
2023/12/28 07:06:30;;;;;;;16.60;1.92;;;11.40;99.90;;;;;;5055913;28;20055;-66
2023/12/28 07:08:55;;;;;;;20.13;2.10;;;11.40;99.90;;;;;;5055787;28;20567;-67
2023/12/28 07:11:22;;;;;;;17.02;2.22;;;11.40;99.90;;;;;;5059864;28;20106;-66
2023/12/28 07:13:47;;;;;;;15.45;2.13;;;11.40;99.90;;;;;;5068285;28;20044;-66
2023/12/28 07:16:13;;;;;;;16.52;1.70;;;11.40;99.90;;;;;;5060397;28;20111;-66
2023/12/28 07:18:39;;;;;;;13.07;1.50;;;11.40;99.90;;;;;;5046616;28;20263;-67
2023/12/28 07:21:06;;;;;;;15.18;2.17;;;11.50;99.90;;;;;;5044082;28;20044;-66
2023/12/28 07:23:31;;;;;;;18.63;1.88;;;11.50;99.90;;;;;;5062766;28;20044;-67
2023/12/28 07:25:57;;;;;;;11.02;1.25;;;11.40;99.90;;;;;;5061388;28;20595;-67
2023/12/28 07:28:23;;;;;;;12.32;1.15;;;11.40;99.90;;;;;;5040456;28;20792;-67
2023/12/28 07:30:49;;;;;;;13.50;1.90;;;11.40;99.90;;;;;;5022636;28;20036;-66
2023/12/28 07:33:15;;;;;;;14.80;1.42;;;11.40;99.90;;;;;;5061136;28;20040;-66
2023/12/28 07:35:40;;;;;;;16.40;2.10;;;11.40;99.90;;;;;;5058218;28;20146;-67
2023/12/28 07:38:06;;;;;;;19.95;2.33;;;11.30;99.90;;;;;;5057511;28;20035;-66
2023/12/28 07:40:32;;;;;;;13.27;1.63;;;11.40;99.90;;;;;;5060830;28;20047;-67
2023/12/28 07:42:58;;;;;;;15.55;1.95;;;11.40;99.90;;;;;;5025929;28;20056;-66
2023/12/28 07:45:24;;;;;;;21.02;2.53;;;11.30;99.90;;;;;;5043986;28;20072;-66
2023/12/28 07:47:51;;;;;;;16.30;2.55;;;11.30;99.90;;;;;;5052858;28;20079;-66
2023/12/28 07:50:17;;;;;;;19.85;2.25;;;11.30;99.90;;;;;;5061244;28;20048;-66
2023/12/28 07:52:43;;;;;;;19.30;2.85;;;11.40;99.90;;;;;;5051561;28;20551;-66
2023/12/28 07:55:09;;;;;;;18.73;2.53;;;11.40;99.90;;;;;;5036914;28;20634;-66
2023/12/28 07:57:36;;;;;;;16.50;2.47;;;11.40;99.90;;;;;;5046708;28;20597;-65
2023/12/28 08:00:02;;;;;;;15.75;2.50;;;11.40;99.90;;;;;;5036413;28;20214;-66
2023/12/28 08:02:28;;;;;;;23.45;2.83;;;11.40;99.90;;;;;;5022207;28;20406;-66
2023/12/28 08:04:54;;;;;;;18.92;2.45;;;11.40;99.90;;;;;;5064441;28;20036;-66
2023/12/28 08:07:20;;;;;;;18.17;2.50;;;11.40;99.90;;;;;;5040966;28;20482;-65
2023/12/28 08:09:46;;;;;;;24.10;3.22;;;11.50;99.90;;;;;;5049074;28;20124;-66
2023/12/28 08:12:11;;;;;;;19.60;2.70;;;11.50;99.90;;;;;;5041230;28;20399;-66
2023/12/28 08:14:37;;;;;;;19.55;2.65;;;11.60;99.90;;;;;;5045712;28;20443;-66
2023/12/28 08:17:03;;;;;;;20.60;2.78;;;11.60;99.90;;;;;;5053072;28;20507;-66
2023/12/28 08:19:29;;;;;;;22.05;2.30;;;11.70;99.90;;;;;;5057936;28;20040;-66
2023/12/28 08:21:55;;;;;;;20.73;2.78;;;11.60;99.90;;;;;;5043108;28;20069;-66
2023/12/28 08:24:21;;;;;;;22.52;2.85;;;11.60;99.90;;;;;;5061515;28;20322;-67
2023/12/28 08:26:47;;;;;;;20.05;2.10;;;11.60;99.90;;;;;;5025483;28;20056;-65
2023/12/28 08:29:12;;;;;;;17.85;2.80;;;11.60;99.90;;;;;;5061636;28;20226;-66
2023/12/28 08:31:38;;;;;;;18.02;2.47;;;11.70;99.90;;;;;;5060028;28;20071;-67
2023/12/28 08:34:04;;;;;;;26.95;3.55;;;11.80;99.90;;;;;;5041720;28;20048;-66
2023/12/28 08:36:30;;;;;;;29.42;4.03;;;11.80;99.90;;;;;;5041394;28;20162;-66
2023/12/28 08:38:55;;;;;;;26.95;3.38;;;11.80;99.90;;;;;;5056621;28;20080;-66
2023/12/28 08:41:23;;;;;;;20.55;2.60;;;11.80;99.90;;;;;;5059780;28;20044;-66
2023/12/28 08:43:50;;;;;;;23.38;3.53;;;11.80;99.90;;;;;;5060609;28;20051;-67
2023/12/28 08:46:16;;;;;;;23.35;3.17;;;11.70;99.90;;;;;;5040746;28;20043;-66
2023/12/28 08:48:42;;;;;;;27.00;3.55;;;11.80;99.90;;;;;;5061267;28;20040;-66
2023/12/28 08:51:10;;;;;;;23.65;3.03;;;11.90;99.90;;;;;;5043102;28;20604;-66
2023/12/28 08:53:37;;;;;;;24.83;3.17;;;11.90;99.90;;;;;;5044094;28;20044;-65
2023/12/28 08:56:12;;;;;;;25.27;3.30;;;11.90;99.90;;;;;;5060665;28;20032;-65
2023/12/28 08:58:38;;;;;;;24.50;3.20;;;12.00;99.90;;;;;;5041421;28;20150;-65
2023/12/28 09:01:04;;;;;;;18.67;2.53;;;12.00;99.90;;;;;;5020286;28;20131;-66
2023/12/28 09:03:30;;;;;;;26.45;3.53;;;11.90;99.90;;;;;;5058802;28;20086;-66
2023/12/28 09:05:55;;;;;;;22.17;3.35;;;11.90;99.90;;;;;;5040014;28;20074;-66
2023/12/28 09:08:21;;;;;;;19.20;2.53;;;12.00;99.90;;;;;;5057776;28;20068;-64
2023/12/28 09:10:47;;;;;;;29.73;3.40;;;12.00;99.90;;;;;;5057110;28;20040;-65
2023/12/28 09:13:19;;;;;;;23.38;2.83;;;12.00;99.90;;;;;;5061326;28;20078;-68
2023/12/28 09:15:45;;;;;;;24.63;3.28;;;12.00;99.90;;;;;;5061114;28;20904;-64
2023/12/28 09:18:11;;;;;;;24.20;3.30;;;12.00;99.90;;;;;;5053684;28;20036;-65
2023/12/28 09:20:37;;;;;;;30.88;4.50;;;12.00;99.90;;;;;;5062200;28;20090;-65
2023/12/28 09:23:03;;;;;;;27.00;3.63;;;11.90;99.90;;;;;;5045287;28;20204;-65
2023/12/28 09:25:29;;;;;;;33.15;5.05;;;12.00;99.90;;;;;;5063762;28;20055;-65
2023/12/28 09:27:55;;;;;;;21.13;3.22;;;12.00;99.90;;;;;;5048224;28;20043;-65
2023/12/28 09:30:20;;;;;;;20.80;3.25;;;12.10;99.90;;;;;;5010292;28;20135;-64
2023/12/28 09:32:46;;;;;;;19.33;3.00;;;12.10;99.90;;;;;;5061151;28;20131;-64
2023/12/28 09:35:12;;;;;;;24.98;3.90;;;12.10;99.90;;;;;;5061273;28;20652;-65
2023/12/28 09:37:37;;;;;;;20.70;3.13;;;12.00;99.90;;;;;;5064290;28;20332;-65
2023/12/28 09:40:04;;;;;;;25.42;3.38;;;12.10;99.90;;;;;;5063819;28;20394;-65
2023/12/28 09:42:58;;;;;;;27.58;4.00;;;12.10;99.90;;;;;;5030686;28;20286;-65
2023/12/28 09:45:25;;;;;;;30.60;4.00;;;12.10;99.90;;;;;;5075335;28;20105;-66
2023/12/28 09:47:51;;;;;;;28.00;4.30;;;12.10;99.90;;;;;;5044632;28;20116;-65
2023/12/28 09:50:19;;;;;;;22.95;3.50;;;12.10;99.90;;;;;;5056275;28;20576;-66
2023/12/28 09:52:45;;;;;;;23.65;2.88;;;12.10;99.90;;;;;;5056262;28;20569;-65
2023/12/28 09:55:11;;;;;;;23.40;3.08;;;12.20;99.90;;;;;;5056014;28;20052;-65
2023/12/28 09:57:37;;;;;;;21.05;2.97;;;12.20;99.90;;;;;;5056147;28;20052;-65
2023/12/28 10:00:06;;;;;;;27.33;4.22;;;12.20;99.90;;;;;;5071021;28;20039;-64
2023/12/28 10:02:33;;;;;;;20.13;2.72;;;12.30;99.90;;;;;;5076290;28;20052;-65
2023/12/28 10:04:59;;;;;;;22.17;3.90;;;12.30;99.90;;;;;;5076324;28;20546;-65
2023/12/28 10:07:26;;;;;;;26.75;3.47;;;12.30;99.90;;;;;;5075603;28;20042;-66
2023/12/28 10:09:52;;;;;;;26.40;4.20;;;12.10;99.90;;;;;;5056560;28;20694;-68
2023/12/28 10:12:19;;;;;;;26.00;4.07;;;12.00;99.90;;;;;;5023764;28;20051;-65
2023/12/28 10:14:44;;;;;;;25.95;3.35;;;12.00;99.90;;;;;;5056514;28;20044;-65
2023/12/28 10:17:10;;;;;;;29.83;3.53;;;11.90;99.90;;;;;;5041185;28;20048;-65
2023/12/28 10:19:37;;;;;;;20.33;2.90;;;11.80;99.90;;;;;;5075667;28;20268;-65
2023/12/28 10:22:04;;;;;;;18.75;2.20;;;11.80;99.90;;;;;;5075401;28;20052;-65
2023/12/28 10:24:30;;;;;;;19.45;2.92;;;11.90;99.90;;;;;;5058463;28;20044;-66
2023/12/28 10:26:56;;;;;;;24.77;3.67;;;11.90;99.90;;;;;;5071408;28;20044;-66
2023/12/28 10:29:25;;;;;;;19.80;3.00;;;12.00;99.90;;;;;;5064469;28;20040;-65
2023/12/28 10:31:54;;;;;;;28.83;3.47;;;12.00;99.90;;;;;;5063311;28;20075;-65
2023/12/28 10:34:20;;;;;;;28.30;3.40;;;12.00;99.90;;;;;;5061826;28;20781;-66
2023/12/28 10:36:48;;;;;;;25.95;3.63;;;12.00;99.90;;;;;;5071516;28;20111;-65
2023/12/28 10:39:19;;;;;;;19.08;2.63;;;12.00;99.90;;;;;;5075073;28;20297;-65
2023/12/28 10:41:49;;;;;;;24.08;3.20;;;12.00;99.90;;;;;;5045182;28;20040;-65
2023/12/28 10:44:19;;;;;;;24.50;3.42;;;12.00;99.90;;;;;;5042513;28;20048;-66
2023/12/28 10:46:47;;;;;;;22.45;3.40;;;12.10;99.90;;;;;;5059569;28;20046;-66
2023/12/28 10:49:16;;;;;;;20.55;3.15;;;12.10;99.90;;;;;;5062885;28;20041;-66
2023/12/28 10:51:45;;;;;;;24.70;3.13;;;12.10;99.90;;;;;;5063990;28;20182;-65
2023/12/28 10:54:32;;;;;;;20.55;2.80;;;12.20;99.90;;;;;;5055144;28;20055;-65
2023/12/28 10:57:10;;;;;;;21.95;3.30;;;12.20;99.90;;;;;;5039650;28;20057;-66
2023/12/28 10:59:48;;;;;;;22.05;3.35;;;12.20;99.90;;;;;;5027028;28;20055;-67
2023/12/28 11:02:21;;;;;;;29.38;3.25;;;12.30;99.90;;;;;;5062473;28;20808;-66
2023/12/28 11:04:49;;;;;;;22.23;3.30;;;12.20;99.90;;;;;;5045506;28;20346;-65
2023/12/28 11:07:17;;;;;;;20.25;3.08;;;12.30;99.90;;;;;;5025971;28;20419;-65
2023/12/28 11:09:44;;;;;;;18.83;2.85;;;12.30;99.90;;;;;;5041839;28;20649;-66
2023/12/28 11:12:10;;;;;;;18.70;2.30;;;12.30;99.90;;;;;;5050040;28;20263;-64
2023/12/28 11:14:39;;;;;;;16.83;2.65;;;12.30;99.90;;;;;;5039711;28;20469;-65
2023/12/28 11:17:05;;;;;;;22.23;3.28;;;12.20;99.90;;;;;;5059110;28;20063;-65
2023/12/28 11:19:32;;;;;;;21.70;3.47;;;12.20;99.90;;;;;;5059638;28;20051;-65
2023/12/28 11:22:02;;;;;;;29.60;4.78;;;12.30;99.90;;;;;;5043876;28;20313;-65
2023/12/28 11:24:29;;;;;;;29.27;3.80;;;12.30;99.90;;;;;;5064261;28;20044;-66
2023/12/28 11:26:56;;;;;;;21.98;3.03;;;12.20;99.90;;;;;;5038202;28;20239;-66
2023/12/28 11:29:23;;;;;;;26.23;3.17;;;12.10;99.90;;;;;;5045373;28;20063;-66
2023/12/28 11:31:58;;;;;;;24.17;3.33;;;12.10;99.90;;;;;;5042027;28;20534;-67
2023/12/28 11:34:31;;;;;;;23.60;3.25;;;12.00;99.90;;;;;;5026205;28;20051;-65
2023/12/28 11:37:10;;;;;;;27.08;3.75;;;11.80;99.90;;;;;;5038161;28;20376;-67
2023/12/28 11:39:38;;;;;;;24.00;3.17;;;11.40;99.90;;;;;;5037221;28;20067;-65
2023/12/28 11:42:08;;;;;;;21.75;3.28;;;11.30;99.90;;;;;;5037675;28;20062;-64
2023/12/28 11:44:42;;;;;;;25.80;3.38;;;11.30;99.90;;;;;;5041004;28;20036;-65
2023/12/28 11:47:21;;;;;;;25.88;3.40;;;11.40;99.90;;;;;;5041532;28;20623;-65
2023/12/28 11:49:51;;;;;;;20.30;2.55;;;11.60;99.90;;;;;;5074817;28;20044;-64
2023/12/28 11:52:26;;;;;;;25.95;3.33;;;11.90;99.90;;;;;;5058487;28;20118;-65
2023/12/28 11:54:53;;;;;;;28.23;3.67;;;12.10;99.90;;;;;;5060756;28;20048;-65
2023/12/28 11:57:18;;;;;;;28.70;3.78;;;12.20;99.90;;;;;;5057448;28;20427;-64
2023/12/28 11:59:44;;;;;;;26.83;4.00;;;12.20;99.90;;;;;;5039765;28;20051;-65
2023/12/28 12:02:13;;;;;;;24.10;3.42;;;12.20;99.90;;;;;;5057629;28;20387;-64
2023/12/28 12:04:39;;;;;;;18.75;2.45;;;12.30;99.90;;;;;;5056697;28;20040;-64
2023/12/28 12:07:05;;;;;;;20.40;3.42;;;12.20;99.90;;;;;;5037591;28;20464;-65
2023/12/28 12:09:34;;;;;;;20.27;2.75;;;12.20;99.90;;;;;;5060197;28;20139;-65
2023/12/28 12:12:04;;;;;;;25.20;3.72;;;12.10;99.90;;;;;;5026747;28;20501;-65
2023/12/28 12:14:30;;;;;;;27.60;3.65;;;12.00;99.90;;;;;;5054635;28;20127;-64
2023/12/28 12:16:58;;;;;;;25.10;3.72;;;12.00;99.90;;;;;;5057690;28;20237;-65
2023/12/28 12:19:25;;;;;;;25.30;3.50;;;12.00;99.90;;;;;;5054016;28;20052;-64
2023/12/28 12:21:55;;;;;;;20.45;3.40;;;12.00;99.90;;;;;;5025211;28;20055;-65
2023/12/28 12:24:22;;;;;;;24.98;3.60;;;12.00;99.90;;;;;;5024636;28;20243;-65
2023/12/28 12:26:49;;;;;;;21.80;3.10;;;12.00;99.90;;;;;;5040629;28;20076;-66
2023/12/28 12:29:14;;;;;;;27.08;3.17;;;12.10;99.90;;;;;;5029546;28;20541;-66
2023/12/28 12:31:42;;;;;;;29.58;3.67;;;12.10;99.90;;;;;;5027180;28;20120;-65
2023/12/28 12:34:09;;;;;;;23.13;2.97;;;12.10;99.90;;;;;;5066500;28;20055;-66
2023/12/28 12:36:35;;;;;;;32.25;4.70;;;12.10;99.90;;;;;;5054814;28;20379;-65
2023/12/28 12:39:04;;;;;;;28.27;4.32;;;12.10;99.90;;;;;;5022669;28;20699;-67